createdAt,value
2018-07-20T00:00:06.968Z,98021.67
2018-07-20T00:02:36.099Z,98024.58
2018-07-20T00:05:06.307Z,98021.53
2018-07-20T00:07:35.703Z,98025.05
2018-07-20T00:10:04.830Z,98022.43
2018-07-20T00:12:34.050Z,98021.41
2018-07-20T00:15:03.268Z,98019.08
2018-07-20T00:17:32.782Z,98017.20
2018-07-20T00:20:02.932Z,98013.63
2018-07-20T00:22:32.193Z,98009.47
2018-07-20T00:25:00.867Z,98016.94
2018-07-20T00:27:29.970Z,98014.23
2018-07-20T00:29:59.049Z,98008.75
2018-07-20T00:32:28.146Z,98003.78
2018-07-20T00:34:57.311Z,98002.16
2018-07-20T00:37:26.402Z,98001.68
2018-07-20T00:39:55.494Z,97996.46
2018-07-20T00:42:24.605Z,97990.42
2018-07-20T00:44:53.806Z,97987.25
2018-07-20T00:47:22.942Z,97986.70
2018-07-20T00:49:52.054Z,97985.85
2018-07-20T00:52:21.524Z,97986.10
2018-07-20T00:54:50.617Z,97993.45
2018-07-20T00:57:19.841Z,97994.48
2018-07-20T00:59:48.926Z,97995.81
2018-07-20T01:02:18.757Z,98001.31
2018-07-20T01:04:47.822Z,97998.09
2018-07-20T01:07:17.054Z,97989.46
2018-07-20T01:09:46.201Z,97988.05
2018-07-20T01:12:15.346Z,97989.47
2018-07-20T01:14:44.491Z,97988.56
2018-07-20T01:17:13.578Z,97987.53
2018-07-20T01:19:43.164Z,97983.98
2018-07-20T01:22:12.295Z,97983.83
2018-07-20T01:24:42.615Z,97977.11
2018-07-20T01:27:12.282Z,97981.81
2018-07-20T01:29:41.427Z,97977.68
2018-07-20T01:32:10.631Z,97972.70
2018-07-20T01:34:39.723Z,97973.54
2018-07-20T01:37:09.562Z,97970.92
2018-07-20T01:39:38.658Z,97965.58
2018-07-20T01:42:07.786Z,97965.87
2018-07-20T01:44:36.870Z,97968.52
2018-07-20T01:47:05.991Z,97966.08
2018-07-20T01:49:35.297Z,97962.95
2018-07-20T01:52:04.422Z,97963.70
2018-07-20T01:54:33.507Z,97969.73
2018-07-20T01:57:02.594Z,97969.12
2018-07-20T01:59:31.693Z,97964.22
2018-07-20T02:02:01.309Z,97961.41
2018-07-20T02:04:30.385Z,97961.25
2018-07-20T02:06:59.526Z,97959.19
2018-07-20T02:09:28.637Z,97964.54
2018-07-20T02:11:57.741Z,97963.33
2018-07-20T02:14:26.850Z,97965.48
2018-07-20T02:16:56.389Z,97963.39
2018-07-20T02:19:25.594Z,97968.45
2018-07-20T02:21:54.713Z,97967.56
2018-07-20T02:24:23.801Z,97966.03
2018-07-20T02:26:52.606Z,97969.26
2018-07-20T02:29:22.239Z,97974.84
2018-07-20T02:31:51.326Z,97976.46
2018-07-20T02:34:20.458Z,97980.43
2018-07-20T02:36:49.577Z,97980.81
2018-07-20T02:39:18.682Z,97973.53
2018-07-20T02:41:47.818Z,97966.38
2018-07-20T02:44:16.711Z,97966.77
2018-07-20T02:46:45.812Z,97969.17
2018-07-20T02:49:15.003Z,97969.67
2018-07-20T02:51:44.810Z,97969.38
2018-07-20T02:54:14.152Z,97957.77
2018-07-20T02:56:43.669Z,97958.03
2018-07-20T02:59:13.043Z,97965.93
2018-07-20T03:01:42.584Z,97963.20
2018-07-20T03:04:11.839Z,97964.96
2018-07-20T03:06:40.967Z,97964.69
2018-07-20T03:09:12.106Z,97964.30
2018-07-20T03:11:41.598Z,97967.74
2018-07-20T03:14:10.855Z,97970.70
2018-07-20T03:16:40.895Z,97968.69
2018-07-20T03:19:09.886Z,97968.14
2018-07-20T03:21:39.005Z,97964.88
2018-07-20T03:24:08.497Z,97964.88
2018-07-20T03:26:37.625Z,97962.70
2018-07-20T03:29:07.093Z,97961.47
2018-07-20T03:31:35.832Z,97962.98
2018-07-20T03:34:04.989Z,97959.24
2018-07-20T03:36:34.097Z,97953.91
2018-07-20T03:39:03.558Z,97954.63
2018-07-20T03:41:32.666Z,97951.80
2018-07-20T03:44:01.754Z,97958.60
2018-07-20T03:46:31.007Z,97960.39
2018-07-20T03:49:00.166Z,97961.90
2018-07-20T03:51:29.245Z,97962.80
2018-07-20T03:53:58.877Z,97959.27
2018-07-20T03:56:28.022Z,97959.64
2018-07-20T03:58:57.114Z,97958.78
2018-07-20T04:01:26.221Z,97957.28
2018-07-20T04:03:55.318Z,97958.56
2018-07-20T04:06:24.410Z,97959.84
2018-07-20T04:08:54.285Z,97962.44
2018-07-20T04:11:24.702Z,97963.72
2018-07-20T04:13:54.001Z,97962.94
2018-07-20T04:16:23.116Z,97952.70
2018-07-20T04:18:52.237Z,97962.77
2018-07-20T04:21:21.349Z,97958.53
2018-07-20T04:23:50.454Z,97957.41
2018-07-20T04:26:19.609Z,97946.55
2018-07-20T04:28:48.725Z,97957.11
2018-07-20T04:31:19.935Z,97957.23
2018-07-20T04:33:49.297Z,97959.16
2018-07-20T04:36:18.470Z,97954.59
2018-07-20T04:38:47.558Z,97953.80
2018-07-20T04:41:16.667Z,97955.91
2018-07-20T04:43:45.783Z,97953.00
2018-07-20T04:46:14.885Z,97953.77
2018-07-20T04:48:44.011Z,97950.82
2018-07-20T04:51:13.154Z,97951.55
2018-07-20T04:53:42.314Z,97950.66
2018-07-20T04:56:12.127Z,97959.91
2018-07-20T04:58:42.389Z,97953.67
2018-07-20T05:01:11.974Z,97952.34
2018-07-20T05:03:41.770Z,97959.25
2018-07-20T05:06:10.874Z,97948.74
2018-07-20T05:08:39.983Z,97951.01
2018-07-20T05:11:09.786Z,97952.61
2018-07-20T05:13:38.905Z,97945.21
2018-07-20T05:16:08.918Z,97951.04
2018-07-20T05:18:38.229Z,97947.20
2018-07-20T05:21:08.862Z,97942.91
2018-07-20T05:23:38.389Z,97941.27
2018-07-20T05:26:07.729Z,97939.32
2018-07-20T05:28:36.906Z,97934.44
2018-07-20T05:31:06.161Z,97936.53
2018-07-20T05:33:35.239Z,97932.66
2018-07-20T05:36:04.403Z,97936.02
2018-07-20T05:38:34.554Z,97931.59
2018-07-20T05:41:03.679Z,97930.38
2018-07-20T05:43:32.801Z,97935.36
2018-07-20T05:46:01.913Z,97933.28
2018-07-20T05:48:31.035Z,97941.52
2018-07-20T05:51:00.174Z,97934.75
2018-07-20T05:53:29.534Z,97938.39
2018-07-20T05:55:58.997Z,97937.59
2018-07-20T05:58:28.111Z,97940.47
2018-07-20T06:00:57.409Z,97937.39
2018-07-20T06:03:26.538Z,97935.07
2018-07-20T06:05:55.684Z,97927.11
2018-07-20T06:08:24.785Z,97927.04
2018-07-20T06:10:54.094Z,97927.66
2018-07-20T06:13:23.225Z,97924.77
2018-07-20T06:15:52.355Z,97916.94
2018-07-20T06:18:21.476Z,97921.63
2018-07-20T06:20:51.165Z,97925.20
2018-07-20T06:23:20.397Z,97922.52
2018-07-20T06:25:49.574Z,97921.34
2018-07-20T06:28:18.707Z,97917.16
2018-07-20T06:30:47.809Z,97924.21
2018-07-20T06:33:16.974Z,97916.89
2018-07-20T06:35:46.247Z,97922.39
2018-07-20T06:38:15.445Z,97918.72
2018-07-20T06:40:44.618Z,97909.58
2018-07-20T06:43:14.058Z,97913.98
2018-07-20T06:45:43.182Z,97909.22
2018-07-20T06:48:12.701Z,97906.65
2018-07-20T06:50:41.822Z,97914.09
2018-07-20T06:53:10.936Z,97904.64
2018-07-20T06:55:40.085Z,97918.63
2018-07-20T06:58:09.989Z,97911.20
2018-07-20T07:00:39.086Z,97916.47
2018-07-20T07:03:08.266Z,97920.46
2018-07-20T07:05:37.821Z,97913.88
2018-07-20T07:08:06.925Z,97915.75
2018-07-20T07:10:36.826Z,97914.83
2018-07-20T07:13:06.250Z,97918.14
2018-07-20T07:15:36.034Z,97913.16
2018-07-20T07:18:05.986Z,97907.95
2018-07-20T07:20:35.974Z,97911.82
2018-07-20T07:23:05.014Z,97906.81
2018-07-20T07:25:34.117Z,97900.61
2018-07-20T07:28:03.246Z,97909.42
2018-07-20T07:30:33.123Z,97908.73
2018-07-20T07:33:02.247Z,97913.42
2018-07-20T07:35:31.377Z,97916.66
2018-07-20T07:38:01.232Z,97916.05
2018-07-20T07:40:30.329Z,97908.73
2018-07-20T07:42:59.470Z,97909.17
2018-07-20T07:45:28.561Z,97906.88
2018-07-20T07:47:57.657Z,97910.68
2018-07-20T07:50:26.777Z,97914.41
2018-07-20T07:52:55.895Z,97908.06
2018-07-20T07:55:25.010Z,97898.15
2018-07-20T07:57:54.799Z,97902.07
2018-07-20T08:00:23.917Z,97895.83
2018-07-20T08:02:53.042Z,97900.56
2018-07-20T08:05:22.959Z,97902.75
2018-07-20T08:07:52.079Z,97897.87
2018-07-20T08:10:21.364Z,97897.37
2018-07-20T08:12:50.521Z,97893.42
2018-07-20T08:15:20.076Z,97889.29
2018-07-20T08:17:49.168Z,97893.00
2018-07-20T08:20:18.290Z,97895.25
2018-07-20T08:22:47.391Z,97886.34
2018-07-20T08:25:16.485Z,97887.73
2018-07-20T08:27:45.630Z,97881.87
2018-07-20T08:30:14.718Z,97884.22
2018-07-20T08:32:43.802Z,97881.77
2018-07-20T08:35:13.177Z,97879.88
2018-07-20T08:37:42.297Z,97882.28
2018-07-20T08:40:11.974Z,97880.86
2018-07-20T08:42:41.097Z,97874.58
2018-07-20T08:45:09.837Z,97871.55
2018-07-20T08:47:39.126Z,97873.02
2018-07-20T08:50:08.466Z,97863.16
2018-07-20T08:52:38.082Z,97867.93
2018-07-20T08:55:06.821Z,97860.59
2018-07-20T08:57:35.953Z,97858.85
2018-07-20T09:00:06.947Z,97857.84
2018-07-20T09:02:36.018Z,97858.87
2018-07-20T09:05:05.549Z,97852.39
2018-07-20T09:07:34.686Z,97848.80
2018-07-20T09:10:03.843Z,97845.23
2018-07-20T09:12:33.061Z,97846.23
2018-07-20T09:15:02.273Z,97847.47
2018-07-20T09:17:31.584Z,97841.55
2018-07-20T09:20:01.475Z,97846.17
2018-07-20T09:22:30.674Z,97833.72
2018-07-20T09:24:59.775Z,97835.83
2018-07-20T09:27:28.929Z,97837.92
2018-07-20T09:29:58.014Z,97830.00
2018-07-20T09:32:27.089Z,97825.02
2018-07-20T09:34:56.219Z,97832.84
2018-07-20T09:37:25.333Z,97831.30
2018-07-20T09:39:54.977Z,97833.10
2018-07-20T09:42:24.369Z,97832.76
2018-07-20T09:44:53.917Z,97822.16
2018-07-20T09:47:22.734Z,97828.66
2018-07-20T09:49:52.254Z,97830.08
2018-07-20T09:52:21.365Z,97827.80
2018-07-20T09:54:50.497Z,97816.09
2018-07-20T09:57:19.593Z,97821.09
2018-07-20T09:59:48.814Z,97827.88
2018-07-20T10:02:18.664Z,97825.67
2018-07-20T10:04:47.749Z,97820.37
2018-07-20T10:07:16.849Z,97817.28
2018-07-20T10:09:45.957Z,97817.11
2018-07-20T10:12:15.061Z,97821.61
2018-07-20T10:14:44.209Z,97812.87
2018-07-20T10:17:14.722Z,97812.45
2018-07-20T10:19:43.838Z,97816.28
2018-07-20T10:22:12.976Z,97811.74
2018-07-20T10:24:42.133Z,97800.56
2018-07-20T10:29:39.771Z,97803.49
2018-07-20T10:32:08.930Z,97797.01
2018-07-20T10:34:38.133Z,97788.70
2018-07-20T10:37:07.577Z,97784.28
2018-07-20T10:39:36.701Z,97785.30
2018-07-20T10:42:06.737Z,97782.49
2018-07-20T10:44:36.609Z,97783.56
2018-07-20T10:47:05.906Z,97776.42
2018-07-20T10:49:36.914Z,97775.80
2018-07-20T10:52:06.151Z,97777.80
2018-07-20T10:54:35.221Z,97771.83
2018-07-20T10:57:05.094Z,97767.67
2018-07-20T10:59:33.745Z,97766.63
2018-07-20T11:02:03.237Z,97753.67
2018-07-20T11:04:32.353Z,97761.75
2018-07-20T11:07:01.450Z,97753.19
2018-07-20T11:09:30.706Z,97747.09
2018-07-20T11:11:59.820Z,97747.56
2018-07-20T11:14:28.905Z,97748.17
2018-07-20T11:16:58.002Z,97748.23
2018-07-20T11:19:27.129Z,97738.89
2018-07-20T11:21:56.254Z,97745.27
2018-07-20T11:24:25.403Z,97737.87
2018-07-20T11:26:54.553Z,97739.70
2018-07-20T11:29:23.647Z,97740.72
2018-07-20T11:31:53.677Z,97735.74
2018-07-20T11:34:22.829Z,97736.54
2018-07-20T11:36:51.950Z,97739.66
2018-07-20T11:39:21.598Z,97735.95
2018-07-20T11:41:50.775Z,97723.72
2018-07-20T11:44:21.133Z,97724.44
2018-07-20T11:46:50.300Z,97718.09
2018-07-20T11:49:19.514Z,97722.80
2018-07-20T11:51:48.306Z,97715.23
2018-07-20T11:54:17.479Z,97708.36
2018-07-20T11:56:46.554Z,97708.29
2018-07-20T11:59:16.565Z,97709.19
2018-07-20T12:01:45.945Z,97703.22
2018-07-20T12:04:15.057Z,97701.72
2018-07-20T12:06:44.183Z,97706.63
2018-07-20T12:09:13.885Z,97699.09
2018-07-20T12:11:43.044Z,97696.00
2018-07-20T12:14:12.142Z,97692.05
2018-07-20T12:16:41.257Z,97693.52
2018-07-20T12:19:11.205Z,97690.89
2018-07-20T12:21:40.301Z,97686.25
2018-07-20T12:24:09.434Z,97690.75
2018-07-20T12:26:38.547Z,97682.19
2018-07-20T12:29:08.115Z,97685.64
2018-07-20T12:31:37.209Z,97682.09
2018-07-20T12:34:06.593Z,97672.62
2018-07-20T12:36:35.725Z,97673.75
2018-07-20T12:39:07.984Z,97674.02
2018-07-20T12:41:37.097Z,97665.56
2018-07-20T12:44:06.198Z,97661.14
2018-07-20T12:46:35.363Z,97656.30
2018-07-20T12:49:04.429Z,97666.41
2018-07-20T12:51:33.577Z,97663.73
2018-07-20T12:54:02.741Z,97649.36
2018-07-20T12:56:31.821Z,97647.02
2018-07-20T12:59:01.718Z,97643.77
2018-07-20T13:01:30.833Z,97640.33
2018-07-20T13:03:59.926Z,97643.66
2018-07-20T13:06:29.349Z,97636.56
2018-07-20T13:08:59.101Z,97650.16
2018-07-20T13:11:28.214Z,97641.44
2018-07-20T13:13:57.027Z,97642.73
2018-07-20T13:16:26.159Z,97644.33
2018-07-20T13:18:55.301Z,97641.22
2018-07-20T13:21:24.409Z,97645.19
2018-07-20T13:23:53.511Z,97639.71
2018-07-20T13:26:22.622Z,97638.47
2018-07-20T13:28:51.705Z,97638.23
2018-07-20T13:31:21.545Z,97639.05
2018-07-20T13:33:51.037Z,97643.40
2018-07-20T13:36:20.546Z,97640.77
2018-07-20T13:38:50.769Z,97642.40
2018-07-20T13:41:20.311Z,97632.03
2018-07-20T13:43:49.433Z,97634.75
2018-07-20T13:46:18.549Z,97633.69
2018-07-20T13:48:47.689Z,97649.76
2018-07-20T13:51:16.834Z,97629.31
2018-07-20T13:53:45.974Z,97635.33
2018-07-20T13:56:15.822Z,97631.32
2018-07-20T13:58:44.926Z,97636.06
2018-07-20T14:01:14.097Z,97626.80
2018-07-20T14:03:42.973Z,97626.10
2018-07-20T14:06:12.936Z,97631.44
2018-07-20T14:08:42.084Z,97627.94
2018-07-20T14:11:11.189Z,97626.16
2018-07-20T14:13:40.293Z,97620.95
2018-07-20T14:16:09.434Z,97628.91
2018-07-20T14:18:38.538Z,97614.41
2018-07-20T14:21:07.669Z,97611.34
2018-07-20T14:23:37.238Z,97607.22
2018-07-20T14:26:06.552Z,97607.27
2018-07-20T14:28:35.701Z,97599.44
2018-07-20T14:31:04.825Z,97594.19
2018-07-20T14:33:33.922Z,97592.63
2018-07-20T14:36:03.055Z,97588.33
2018-07-20T14:38:32.193Z,97581.36
2018-07-20T14:41:01.867Z,97590.80
2018-07-20T14:43:30.969Z,97579.86
2018-07-20T14:46:00.127Z,97581.77
2018-07-20T14:48:29.229Z,97589.79
2018-07-20T14:50:58.358Z,97586.97
2018-07-20T14:53:27.466Z,97582.72
2018-07-20T14:55:56.737Z,97581.05
2018-07-20T14:58:25.853Z,97585.05
2018-07-20T15:00:55.005Z,97582.22
2018-07-20T15:03:24.134Z,97573.25
2018-07-20T15:05:53.807Z,97575.23
2018-07-20T15:08:23.383Z,97568.57
2018-07-20T15:10:52.742Z,97568.08
2018-07-20T15:13:24.043Z,97561.72
2018-07-20T15:15:53.427Z,97559.80
2018-07-20T15:18:23.390Z,97561.34
2018-07-20T15:20:52.690Z,97564.05
2018-07-20T15:23:22.481Z,97562.89
2018-07-20T15:25:51.200Z,97564.88
2018-07-20T15:28:20.553Z,97569.34
2018-07-20T15:30:55.454Z,97576.80
2018-07-20T15:33:26.246Z,97575.55
2018-07-20T15:35:55.459Z,97580.91
2018-07-20T15:38:24.665Z,97584.09
2018-07-20T15:40:53.782Z,97597.88
2018-07-20T15:43:23.265Z,97621.99
2018-07-20T15:46:05.699Z,97646.75
2018-07-20T15:48:21.478Z,97648.30
2018-07-20T15:50:50.565Z,97642.75
2018-07-20T15:53:46.568Z,97653.95
2018-07-20T15:55:48.827Z,97683.87
2018-07-20T15:58:17.943Z,97692.70
2018-07-20T16:00:47.681Z,97697.20
2018-07-20T16:03:16.877Z,97693.64
2018-07-20T16:05:46.050Z,97721.83
2018-07-20T16:08:15.809Z,97740.59
2018-07-20T16:10:45.105Z,97737.25
2018-07-20T16:13:14.240Z,97731.03
2018-07-20T16:15:43.442Z,97731.28
2018-07-20T16:18:12.641Z,97731.81
2018-07-20T16:20:44.678Z,97733.36
2018-07-20T16:23:14.593Z,97723.52
2018-07-20T16:25:43.776Z,97718.34
2018-07-20T16:28:13.993Z,97721.97
2018-07-20T16:30:43.253Z,97734.33
2018-07-20T16:33:12.027Z,97727.48
2018-07-20T16:35:41.745Z,97730.27
2018-07-20T16:38:12.149Z,97747.31
2018-07-20T16:40:42.060Z,97751.83
2018-07-20T16:43:10.946Z,97759.02
2018-07-20T16:45:40.654Z,97760.14
2018-07-20T16:48:09.989Z,97764.72
2018-07-20T16:50:41.762Z,97757.16
2018-07-20T16:53:11.893Z,97751.25
2018-07-20T16:55:40.774Z,97754.88
2018-07-20T16:58:09.940Z,97745.00
2018-07-20T17:00:39.089Z,97744.62
2018-07-20T17:03:08.229Z,97754.23
2018-07-20T17:05:37.662Z,97751.36
2018-07-20T17:08:07.462Z,97736.84
2018-07-20T17:10:37.361Z,97735.20
2018-07-20T17:13:06.725Z,97730.20
2018-07-20T17:15:35.713Z,97724.63
2018-07-20T17:18:05.146Z,97728.98
2018-07-20T17:20:34.559Z,97730.23
2018-07-20T17:23:04.066Z,97734.16
2018-07-20T17:25:33.577Z,97736.21
2018-07-20T17:28:03.272Z,97734.66
2018-07-20T17:30:33.540Z,97736.26
2018-07-20T17:33:03.242Z,97735.92
2018-07-20T17:35:35.289Z,97735.66
2018-07-20T17:38:04.421Z,97740.23
2018-07-20T17:40:33.689Z,97745.00
2018-07-20T17:43:03.132Z,97748.25
2018-07-20T17:45:32.216Z,97747.72
2018-07-20T17:48:01.313Z,97746.97
2018-07-20T17:50:32.357Z,97741.26
2018-07-20T17:53:01.657Z,97739.78
2018-07-20T17:55:30.814Z,97735.44
2018-07-20T17:58:00.302Z,97735.95
2018-07-20T18:00:30.274Z,97731.55
2018-07-20T18:03:00.133Z,97730.25
2018-07-20T18:05:31.812Z,97725.72
2018-07-20T18:08:01.600Z,97726.83
2018-07-20T18:10:30.686Z,97719.12
2018-07-20T18:12:59.769Z,97712.63
2018-07-20T18:15:29.258Z,97715.94
2018-07-20T18:17:59.455Z,97728.33
2018-07-20T18:20:28.585Z,97731.98
2018-07-20T18:22:57.734Z,97734.28
2018-07-20T18:25:27.269Z,97732.20
2018-07-20T18:27:56.407Z,97723.79
2018-07-20T18:30:25.508Z,97724.58
2018-07-20T18:32:54.653Z,97718.34
2018-07-20T18:35:24.047Z,97705.63
2018-07-20T18:37:53.693Z,97703.59
2018-07-20T18:40:22.978Z,97709.05
2018-07-20T18:42:53.181Z,97718.41
2018-07-20T18:45:22.480Z,97724.34
2018-07-20T18:47:51.798Z,97716.31
2018-07-20T18:50:21.642Z,97709.82
2018-07-20T18:52:51.551Z,97706.23
2018-07-20T18:55:21.377Z,97702.06
2018-07-20T18:57:50.521Z,97700.30
2018-07-20T19:00:19.661Z,97698.41
2018-07-20T19:02:49.477Z,97702.75
2018-07-20T19:05:18.584Z,97686.23
2018-07-20T19:07:47.694Z,97685.63
2018-07-20T19:10:16.793Z,97682.98
2018-07-20T19:12:45.896Z,97675.68
2018-07-20T19:15:15.058Z,97671.55
2018-07-20T19:17:44.896Z,97675.91
2018-07-20T19:20:14.165Z,97665.66
2018-07-20T19:22:43.762Z,97660.17
2018-07-20T19:25:12.922Z,97659.86
2018-07-20T19:27:42.077Z,97658.53
2018-07-20T19:30:11.246Z,97654.45
2018-07-20T19:32:41.178Z,97661.33
2018-07-20T19:35:10.248Z,97667.27
2018-07-20T19:37:40.297Z,97666.19
2018-07-20T19:40:09.453Z,97668.52
2018-07-20T19:42:38.563Z,97669.45
2018-07-20T19:45:08.329Z,97668.66
2018-07-20T19:47:37.743Z,97677.12
2018-07-20T19:50:08.225Z,97678.91
2018-07-20T19:52:37.471Z,97676.17
2018-07-20T19:55:07.065Z,97675.43
2018-07-20T19:57:36.233Z,97678.66
2018-07-20T20:00:08.550Z,97681.48
2018-07-20T20:02:38.981Z,97678.45
2018-07-20T20:05:08.229Z,97680.61
2018-07-20T20:07:38.595Z,97682.38
2018-07-20T20:10:08.314Z,97681.61
2018-07-20T20:12:37.578Z,97674.52
2018-07-20T20:15:08.302Z,97680.72
2018-07-20T20:17:37.657Z,97679.64
2018-07-20T20:20:11.777Z,97680.11
2018-07-20T20:22:41.501Z,97680.26
2018-07-20T20:25:10.863Z,97690.06
2018-07-20T20:27:40.688Z,97680.05
2018-07-20T20:30:10.078Z,97679.22
2018-07-20T20:32:38.897Z,97679.47
2018-07-20T20:35:07.997Z,97682.32
2018-07-20T20:37:37.398Z,97686.75
2018-07-20T20:40:07.633Z,97686.33
2018-07-20T20:42:37.086Z,97677.28
2018-07-20T20:45:07.630Z,97683.41
2018-07-20T20:47:36.853Z,97691.44
2018-07-20T20:50:06.266Z,97693.35
2018-07-20T20:52:35.766Z,97695.53
2018-07-20T20:55:05.113Z,97696.66
2018-07-20T20:57:34.591Z,97698.63
2018-07-20T21:00:04.859Z,97689.58
2018-07-20T21:02:34.821Z,97691.63
2018-07-20T21:05:03.979Z,97686.64
2018-07-20T21:07:33.329Z,97692.55
2018-07-20T21:10:03.991Z,97685.33
2018-07-20T21:12:34.641Z,97678.63
2018-07-20T21:15:04.281Z,97681.27
2018-07-20T21:17:34.202Z,97677.63
2018-07-20T21:20:04.960Z,97672.64
2018-07-20T21:22:34.210Z,97669.25
2018-07-20T21:25:02.937Z,97672.23
2018-07-20T21:27:32.190Z,97670.77
2018-07-20T21:30:01.335Z,97683.51
2018-07-20T21:32:31.480Z,97682.12
2018-07-20T21:35:00.640Z,97672.28
2018-07-20T21:37:30.134Z,97674.63
2018-07-20T21:39:59.366Z,97680.23
2018-07-20T21:42:28.526Z,97680.44
2018-07-20T21:44:57.626Z,97682.78
2018-07-20T21:47:26.741Z,97685.59
2018-07-20T21:49:55.850Z,97684.54
2018-07-20T21:52:25.601Z,97679.20
2018-07-20T21:54:54.877Z,97679.51
2018-07-20T21:57:24.809Z,97691.63
2018-07-20T21:59:54.632Z,97699.31
2018-07-20T22:02:26.720Z,97704.48
2018-07-20T22:04:56.005Z,97709.67
2018-07-20T22:07:25.175Z,97714.34
2018-07-20T22:09:54.325Z,97709.83
2018-07-20T22:12:23.433Z,97706.69
2018-07-20T22:14:52.802Z,97715.37
2018-07-20T22:17:22.001Z,97723.47
2018-07-20T22:19:51.229Z,97724.11
2018-07-20T22:22:20.357Z,97723.68
2018-07-20T22:24:49.585Z,97717.32
2018-07-20T22:27:18.722Z,97720.02
2018-07-20T22:29:47.856Z,97722.08
2018-07-20T22:32:16.979Z,97719.86
2018-07-20T22:34:46.282Z,97721.64
2018-07-20T22:37:15.405Z,97716.55
2018-07-20T22:39:44.878Z,97713.07
2018-07-20T22:42:14.269Z,97713.70
2018-07-20T22:44:43.053Z,97708.01
2018-07-20T22:47:12.204Z,97706.17
2018-07-20T22:49:41.333Z,97710.66
2018-07-20T22:52:10.534Z,97710.41
2018-07-20T22:54:40.530Z,97700.17
2018-07-20T22:57:09.677Z,97704.64
2018-07-20T22:59:38.835Z,97701.52
2018-07-20T23:02:07.970Z,97710.21
2018-07-20T23:04:37.224Z,97703.70
2018-07-20T23:07:07.194Z,97700.78
2018-07-20T23:09:36.389Z,97701.04
2018-07-20T23:12:05.531Z,97707.22
2018-07-20T23:14:34.743Z,97703.07
2018-07-20T23:17:04.033Z,97713.69
2018-07-20T23:19:33.131Z,97705.82
2018-07-20T23:22:02.262Z,97704.16
2018-07-20T23:24:31.387Z,97700.36
2018-07-20T23:27:00.642Z,97698.67
2018-07-20T23:29:30.390Z,97696.81
2018-07-20T23:31:59.614Z,97699.12
2018-07-20T23:34:28.758Z,97693.31
2018-07-20T23:36:57.876Z,97688.24
2018-07-20T23:39:27.385Z,97682.33
2018-07-20T23:41:56.507Z,97683.83
2018-07-20T23:44:25.665Z,97688.34
2018-07-20T23:46:54.774Z,97691.86
2018-07-20T23:49:24.655Z,97690.26
2018-07-20T23:51:53.778Z,97686.66
2018-07-20T23:54:22.945Z,97693.02
2018-07-20T23:56:52.789Z,97681.95
2018-07-20T23:59:21.954Z,97684.86
